Clovis ASC

2021-01-22 06:50:00

  • imperial
Date Time Air Temperature Relative Humidity Dewpoint Windchill Heat Index Wind Speed Wind Dir. Rain Solar Radiation Soil Temperature Soil Temperature
2m 2m 3m 3m 5cm 10cm
US/Mountain F % F F F MPH deg in MJ/m^2 F F
max avg avg
2021-01-21 07:00:00 40.9 58.4 27.4 32.5 40.9 16.4 18.3 14.5 267.9 265.9 0.00 0.0000529 39.3 40.0
2021-01-21 07:05:00 40.8 58.1 27.2 31.9 40.8 18.3 18.3 14.5 264.0 265.0 0.00 0.0004910 39.2 40.0
2021-01-21 07:10:00 40.8 58.2 27.2 32.6 40.8 15.8 17.6 14.4 267.3 265.1 0.00 0.0017123 39.2 40.0
2021-01-21 07:15:00 40.9 58.3 27.4 34.4 40.9 10.6 15.6 13.3 255.1 267.6 0.00 0.0098818 39.2 40.0
2021-01-21 07:20:00 41.2 57.5 27.4 34.9 41.2 10.6 16.9 13.2 259.8 268.7 0.00 0.0211213 39.2 40.0
2021-01-21 07:25:00 41.3 57.6 27.4 34.5 41.3 11.9 16.2 13.0 270.6 263.5 0.00 0.0130653 39.2 40.0
2021-01-21 07:30:00 41.3 57.5 27.4 33.5 41.3 14.7 15.1 12.9 264.7 267.4 0.00 0.0102228 39.2 40.0
2021-01-21 07:35:00 41.4 57.1 27.3 34.3 41.4 12.8 14.4 12.6 262.2 265.0 0.00 0.0122625 39.2 40.0
2021-01-21 07:40:00 41.7 56.0 27.2 34.5 41.7 13.5 16.9 13.2 266.7 266.7 0.00 0.0066106 39.2 40.0
2021-01-21 07:45:00 42.2 55.0 27.1 35.1 42.2 13.1 17.4 14.7 276.0 266.8 0.00 0.0097370 39.2 40.0
2021-01-21 07:50:00 42.2 55.1 27.2 35.3 42.2 12.8 17.2 13.8 251.9 265.1 0.00 0.0178851 39.3 40.0
2021-01-21 07:55:00 42.2 54.7 27.1 34.9 42.2 14.2 15.8 13.0 259.9 264.0 0.00 0.0202247 39.3 40.0
2021-01-21 08:00:00 42.4 54.9 27.3 36.1 42.4 11.3 15.5 13.4 265.0 262.0 0.00 0.0229564 39.3 40.0
2021-01-21 08:05:00 42.5 54.1 27.1 35.1 42.5 14.7 14.7 12.5 271.4 265.2 0.00 0.0291112 39.3 40.0
2021-01-21 08:10:00 42.8 54.1 27.3 36.4 42.8 11.5 16.5 11.9 258.3 266.5 0.00 0.0355205 39.4 40.0
2021-01-21 08:15:00 43.1 53.6 27.4 36.9 43.1 11.5 14.4 12.1 263.1 267.7 0.00 0.0371059 39.4 40.0
2021-01-21 08:20:00 43.4 53.6 27.7 37.4 43.4 11.2 14.6 11.9 264.3 269.5 0.00 0.0379579 39.5 40.0
2021-01-21 08:25:00 43.6 52.4 27.3 36.8 43.6 13.7 15.6 13.1 270.6 272.5 0.00 0.0325983 39.6 40.0
2021-01-21 08:30:00 43.4 53.6 27.6 37.2 43.4 11.5 16.0 13.1 264.8 264.2 0.00 0.0304139 39.7 40.0
2021-01-21 08:35:00 43.2 53.8 27.6 36.7 43.2 12.4 14.7 12.7 248.4 261.3 0.00 0.0285708 39.7 40.0
2021-01-21 08:40:00 43.3 53.8 27.7 36.7 43.3 13.0 14.7 12.7 255.2 259.6 0.00 0.0336445 39.8 40.1
2021-01-21 08:45:00 43.3 52.8 27.2 35.6 43.3 16.7 16.7 13.0 279.5 264.1 0.00 0.0345657 39.9 40.1
2021-01-21 08:50:00 43.4 53.1 27.5 36.0 43.4 15.6 16.4 13.7 259.3 262.7 0.00 0.0294640 39.9 40.1
2021-01-21 08:55:00 43.5 52.5 27.2 35.7 43.5 17.1 17.1 13.5 267.7 265.6 0.00 0.0299934 40.0 40.1
2021-01-21 09:00:00 43.6 53.2 27.7 37.1 43.6 12.8 16.9 14.4 258.2 263.2 0.00 0.0439894 40.1 40.2
2021-01-21 09:05:00 44.2 51.7 27.5 37.0 44.2 15.5 18.1 15.3 267.5 266.6 0.00 0.0636477 40.1 40.2
2021-01-21 09:10:00 45.1 50.7 27.9 38.7 45.1 13.7 18.5 14.8 266.2 262.3 0.00 0.0690152 40.2 40.2
2021-01-21 09:15:00 45.6 49.4 27.8 38.9 45.6 15.5 19.0 15.5 266.7 260.0 0.00 0.0686578 40.3 40.2
2021-01-21 09:20:00 46.0 49.0 27.9 39.1 46.0 16.5 21.0 18.3 252.9 258.8 0.00 0.0883932 40.4 40.3
2021-01-21 09:25:00 46.9 48.0 28.2 40.2 46.9 16.4 20.5 18.0 266.3 262.0 0.00 0.1117555 40.5 40.3
2021-01-21 09:30:00 48.4 45.1 28.1 41.9 48.4 18.0 19.6 15.7 263.8 262.5 0.00 0.1374928 40.7 40.3
2021-01-21 09:35:00 48.9 45.0 28.4 43.4 48.9 13.9 20.5 16.5 265.3 265.5 0.00 0.1397948 40.8 40.4
2021-01-21 09:40:00 49.2 43.1 27.7 43.2 49.2 16.9 20.1 17.0 262.8 266.6 0.00 0.1386560 40.9 40.4
2021-01-21 09:45:00 49.7 42.3 27.6 44.0 49.7 16.0 19.2 16.2 260.8 271.2 0.00 0.1288141 41.1 40.5
2021-01-21 09:50:00 50.2 41.1 27.5 50.2 50.2 14.0 17.8 15.1 266.7 273.0 0.00 0.1433925 41.3 40.5
2021-01-21 09:55:00 51.1 40.2 27.8 51.1 51.1 15.3 17.4 14.7 265.0 272.5 0.00 0.1496049 41.5 40.6
2021-01-21 10:00:00 51.2 40.3 27.9 51.2 51.2 14.6 16.9 14.6 282.2 271.8 0.00 0.1529408 41.8 40.7
2021-01-21 10:05:00 51.9 38.8 27.6 51.9 51.9 14.7 16.4 14.3 270.5 276.1 0.00 0.1560190 42.2 40.8
2021-01-21 10:10:00 53.2 37.4 27.8 53.2 53.2 11.5 15.1 12.3 264.1 266.4 0.00 0.1588970 42.5 40.9
2021-01-21 10:15:00 53.1 36.5 27.2 53.1 53.1 11.7 14.9 12.3 275.1 272.9 0.00 0.1609213 42.8 41.0
2021-01-21 10:20:00 53.7 37.3 28.2 53.7 53.7 8.8 13.1 10.7 270.5 262.5 0.00 0.1652025 43.2 41.2
2021-01-21 10:25:00 54.0 36.8 28.2 54.0 54.0 7.2 12.6 10.2 278.8 260.1 0.00 0.1697091 43.6 41.3
2021-01-21 10:30:00 55.0 34.8 27.7 55.0 55.0 10.3 13.1 10.4 247.8 245.3 0.00 0.1535791 44.0 41.4
2021-01-21 10:35:00 55.4 33.8 27.3 55.4 55.4 10.1 13.3 10.2 273.6 248.7 0.00 0.1723147 44.4 41.6
2021-01-21 10:40:00 55.9 33.1 27.3 55.9 55.9 11.5 12.8 10.1 260.5 245.7 0.00 0.1747832 44.8 41.8
2021-01-21 10:45:00 57.3 31.6 27.4 57.3 57.3 13.0 14.0 11.6 255.0 255.5 0.00 0.1767593 45.2 41.9
2021-01-21 10:50:00 57.0 32.0 27.4 57.0 57.0 11.0 15.5 12.7 259.7 252.5 0.00 0.1781671 45.6 42.1
2021-01-21 10:55:00 57.7 29.9 26.4 57.7 57.7 14.6 14.6 11.6 245.8 254.3 0.00 0.1797124 46.1 42.3
2021-01-21 11:00:00 58.3 30.0 27.0 58.3 58.3 10.5 14.6 10.5 260.1 258.4 0.00 0.1813086 46.4 42.5
2021-01-21 11:05:00 58.6 28.6 26.1 58.6 58.6 10.8 14.9 11.1 240.2 247.6 0.00 0.1828951 46.8 42.7
2021-01-21 11:10:00 59.4 29.1 27.2 59.4 59.4 9.9 14.0 10.5 256.5 255.5 0.00 0.1845237 47.2 42.8
2021-01-21 11:15:00 59.7 28.6 27.0 59.7 59.7 9.7 15.8 12.0 256.7 251.5 0.00 0.1858325 47.6 43.0
2021-01-21 11:20:00 60.0 27.9 26.7 60.0 60.0 15.1 15.1 10.9 263.8 261.2 0.00 0.1872838 48.0 43.2
2021-01-21 11:25:00 59.8 27.9 26.5 59.8 59.8 11.9 15.3 12.0 259.0 248.7 0.00 0.1884850 48.4 43.4
2021-01-21 11:30:00 59.7 28.0 26.5 59.7 59.7 8.8 11.5 9.7 288.3 246.4 0.00 0.1897550 48.8 43.6
2021-01-21 11:35:00 59.5 27.8 26.2 59.5 59.5 7.2 9.0 6.8 224.5 253.5 0.00 0.1915741 49.2 43.8
2021-01-21 11:40:00 59.9 28.4 27.0 59.9 59.9 1.5 7.6 4.5 137.8 278.6 0.00 0.1948604 49.5 44.0
2021-01-21 11:45:00 60.8 26.1 25.8 60.8 60.8 7.2 11.9 7.7 241.2 248.2 0.00 0.1599320 49.9 44.2
2021-01-21 11:50:00 61.3 25.8 26.0 61.3 61.3 9.0 11.2 8.5 248.1 255.0 0.00 0.1480042 50.4 44.4
2021-01-21 11:55:00 61.3 25.8 25.8 61.3 61.3 9.0 13.9 10.6 256.5 257.0 0.00 0.1629657 50.7 44.5
2021-01-21 12:00:00 61.9 26.5 27.0 61.9 61.9 13.9 15.5 10.6 258.3 249.6 0.00 0.1772983 51.1 44.7
2021-01-21 12:05:00 62.3 25.0 26.1 62.3 62.3 7.1 16.0 11.7 216.5 251.8 0.00 0.1545547 51.4 44.9
2021-01-21 12:10:00 61.7 25.3 25.8 61.7 61.7 9.0 14.7 11.2 232.3 246.5 0.00 0.1541022 51.6 45.1
2021-01-21 12:15:00 63.3 23.8 25.6 63.3 63.3 12.1 17.4 13.9 263.8 255.4 0.00 0.2366838 51.9 45.3
2021-01-21 12:20:00 63.1 24.8 26.5 63.1 63.1 13.1 17.2 13.2 233.9 243.8 0.00 0.2309771 52.1 45.5
2021-01-21 12:25:00 63.3 24.1 26.0 63.3 63.3 15.6 18.7 13.2 264.0 259.4 0.00 0.2096952 52.4 45.7
2021-01-21 12:30:00 63.5 23.9 26.0 63.5 63.5 14.9 17.2 13.7 265.3 276.4 0.00 0.1886785 52.7 45.8
2021-01-21 12:35:00 63.4 23.5 25.4 63.4 63.4 13.9 19.2 13.9 268.7 264.7 0.00 0.1841422 53.1 46.0
2021-01-21 12:40:00 62.4 24.9 26.0 62.4 62.4 13.7 16.5 12.3 270.4 268.0 0.00 0.1224679 53.3 46.2
2021-01-21 12:45:00 62.2 24.8 25.7 62.2 62.2 14.6 16.5 13.9 249.5 269.7 0.00 0.1138556 53.6 46.4
2021-01-21 12:50:00 61.9 25.5 26.2 61.9 61.9 13.9 18.0 14.5 261.6 265.3 0.00 0.1362204 53.8 46.6
2021-01-21 12:55:00 61.5 26.0 26.3 61.5 61.5 12.4 17.6 13.9 271.1 262.2 0.00 0.1162874 53.9 46.8
2021-01-21 13:00:00 61.1 26.0 26.0 61.1 61.1 16.0 17.8 14.3 281.2 260.5 0.00 0.1009949 54.0 47.0
2021-01-21 13:05:00 60.3 27.2 26.3 60.3 60.3 14.4 21.4 15.7 270.4 254.9 0.00 0.0962120 54.1 47.2
2021-01-21 13:10:00 60.2 27.2 26.3 60.2 60.2 15.1 17.4 14.8 243.2 258.0 0.00 0.0903755 54.1 47.3
2021-01-21 13:15:00 60.0 27.6 26.4 60.0 60.0 19.0 19.9 16.6 262.4 255.2 0.00 0.0956926 54.1 47.5
2021-01-21 13:20:00 60.6 27.4 26.8 60.6 60.6 11.7 18.3 15.2 255.1 261.7 0.00 0.1235190 54.1 47.6
2021-01-21 13:25:00 60.9 26.9 26.6 60.9 60.9 14.2 20.3 16.7 262.6 259.0 0.00 0.1273610 54.1 47.8
2021-01-21 13:30:00 60.3 27.2 26.3 60.3 60.3 17.4 20.8 16.2 249.0 249.9 0.00 0.1062769 54.1 47.9
2021-01-21 13:35:00 60.4 27.3 26.5 60.4 60.4 17.6 21.9 18.4 247.9 252.8 0.00 0.1231425 54.1 48.0
2021-01-21 13:40:00 60.4 27.2 26.5 60.4 60.4 14.6 22.6 18.6 242.7 251.5 0.00 0.1176849 54.1 48.1
2021-01-21 13:45:00 60.1 27.5 26.5 60.1 60.1 16.4 19.9 15.6 236.3 244.3 0.00 0.0846219 54.1 48.1
2021-01-21 13:50:00 60.1 27.0 26.0 60.1 60.1 10.3 18.1 12.6 249.7 250.4 0.00 0.0767594 54.1 48.2
2021-01-21 13:55:00 60.4 26.9 26.1 60.4 60.4 11.7 13.1 10.3 254.6 254.8 0.00 0.0791765 54.1 48.3
2021-01-21 14:00:00 60.4 27.5 26.6 60.4 60.4 9.4 13.7 11.1 258.9 248.0 0.00 0.0941058 54.1 48.4
2021-01-21 14:05:00 60.6 27.0 26.4 60.6 60.6 9.4 13.7 10.5 264.0 256.4 0.00 0.1068813 54.0 48.5
2021-01-21 14:10:00 61.8 26.2 26.7 61.8 61.8 13.7 15.8 10.3 258.8 249.3 0.00 0.1273316 54.0 48.6
2021-01-21 14:15:00 62.1 26.0 26.8 62.1 62.1 12.8 16.4 13.4 265.0 254.6 0.00 0.1419184 54.0 48.6
2021-01-21 14:20:00 61.0 26.7 26.5 61.0 61.0 12.8 18.5 12.9 258.1 258.0 0.00 0.0968372 54.1 48.7
2021-01-21 14:25:00 61.9 25.4 26.0 61.9 61.9 13.9 15.1 12.5 256.9 253.8 0.00 0.1151210 54.2 48.8
2021-01-21 14:30:00 62.1 25.6 26.4 62.1 62.1 13.1 16.0 13.1 266.8 263.3 0.00 0.1166705 54.3 48.8
2021-01-21 14:35:00 61.6 26.0 26.4 61.6 61.6 14.9 17.1 13.6 252.2 264.1 0.00 0.0582572 54.3 48.9
2021-01-21 14:40:00 61.7 25.7 26.2 61.7 61.7 14.9 15.8 13.0 273.4 261.9 0.00 0.0863074 54.4 49.0
2021-01-21 14:45:00 62.2 26.2 27.0 62.2 62.2 15.1 17.8 14.9 247.5 260.1 0.00 0.1063471 54.4 49.0
2021-01-21 14:50:00 61.9 25.6 26.3 61.9 61.9 14.4 15.8 13.2 250.8 250.3 0.00 0.0767191 54.4 49.1
2021-01-21 14:55:00 61.5 26.6 26.8 61.5 61.5 13.9 16.9 13.6 232.8 247.5 0.00 0.0491320 54.4 49.2
2021-01-21 15:00:00 61.1 27.4 27.2 61.1 61.1 13.9 17.1 13.1 245.8 241.9 0.00 0.0432249 54.4 49.3
2021-01-21 15:05:00 60.8 27.5 27.0 60.8 60.8 11.5 15.5 11.8 236.6 239.4 0.00 0.0437789 54.4 49.3
2021-01-21 15:10:00 61.1 26.9 26.8 61.1 61.1 13.0 15.6 13.0 248.2 254.7 0.00 0.0479730 54.3 49.4
2021-01-21 15:15:00 60.9 27.3 26.9 60.9 60.9 11.9 14.6 11.7 252.5 248.8 0.00 0.0454715 54.2 49.4
2021-01-21 15:20:00 60.8 27.5 27.1 60.8 60.8 14.7 16.9 12.1 263.2 256.5 0.00 0.0557280 54.1 49.4
2021-01-21 15:25:00 61.1 27.6 27.4 61.1 61.1 12.2 16.2 13.0 256.3 255.6 0.00 0.0660243 54.0 49.4
2021-01-21 15:30:00 61.3 28.0 27.9 61.3 61.3 11.9 14.0 11.3 256.0 253.8 0.00 0.0503834 53.9 49.4
2021-01-21 15:35:00 60.7 28.5 27.8 60.7 60.7 13.9 15.8 12.2 238.3 248.2 0.00 0.0355630 53.9 49.5
2021-01-21 15:40:00 60.5 28.9 27.9 60.5 60.5 13.3 13.3 11.2 250.0 248.0 0.00 0.0296073 53.8 49.5
2021-01-21 15:45:00 60.1 29.4 28.0 60.1 60.1 10.8 14.0 12.2 227.4 245.5 0.00 0.0218995 53.7 49.5
2021-01-21 15:50:00 59.8 30.0 28.3 59.8 59.8 13.3 13.9 11.1 238.9 236.7 0.00 0.0211647 53.7 49.5
2021-01-21 15:55:00 59.8 30.3 28.5 59.8 59.8 10.6 12.1 10.1 235.5 237.4 0.00 0.0235499 53.5 49.5
2021-01-21 16:00:00 59.8 31.4 29.4 59.8 59.8 11.2 14.0 11.7 242.0 236.5 0.00 0.0211100 53.4 49.5
2021-01-21 16:05:00 59.7 31.4 29.4 59.7 59.7 12.2 14.2 12.7 227.8 235.3 0.00 0.0194194 53.3 49.5
2021-01-21 16:10:00 59.5 32.3 29.8 59.5 59.5 10.6 16.4 11.5 242.3 235.1 0.00 0.0174074 53.2 49.5
2021-01-21 16:15:00 59.4 31.3 29.0 59.4 59.4 14.0 15.1 11.2 246.0 234.0 0.00 0.0169382 53.1 49.5
2021-01-21 16:20:00 59.5 30.8 28.7 59.5 59.5 12.8 15.8 12.9 237.4 237.0 0.00 0.0138584 53.0 49.5
2021-01-21 16:25:00 59.4 30.9 28.6 59.4 59.4 12.6 16.2 13.4 234.1 239.0 0.00 0.0132151 52.8 49.5
2021-01-21 16:30:00 59.0 31.7 29.0 59.0 59.0 10.5 14.4 11.1 212.0 238.2 0.00 0.0127087 52.7 49.5
2021-01-21 16:35:00 58.7 32.1 29.0 58.7 58.7 8.3 12.6 9.5 236.6 238.0 0.00 0.0117446 52.6 49.4
2021-01-21 16:40:00 58.5 32.3 29.0 58.5 58.5 9.7 13.7 10.8 232.6 240.9 0.00 0.0077517 52.5 49.4
2021-01-21 16:45:00 58.1 33.3 29.3 58.1 58.1 11.3 12.8 10.7 237.5 239.4 0.00 0.0069767 52.4 49.4
2021-01-21 16:50:00 57.7 33.5 29.2 57.7 57.7 11.5 13.9 10.9 234.0 238.0 0.00 0.0041404 52.3 49.4
2021-01-21 16:55:00 57.5 34.2 29.5 57.5 57.5 11.2 14.6 12.0 239.0 237.6 0.00 0.0028153 52.1 49.4
2021-01-21 17:00:00 57.2 35.0 29.7 57.2 57.2 13.1 14.6 12.2 224.5 233.1 0.00 0.0022685 52.0 49.3
2021-01-21 17:05:00 56.6 36.5 30.3 56.6 56.6 11.7 14.7 11.6 221.3 221.9 0.00 0.0017876 51.9 49.3
2021-01-21 17:10:00 56.2 38.4 31.2 56.2 56.2 8.5 12.8 10.4 215.0 217.6 0.00 0.0037953 51.7 49.3
2021-01-21 17:15:00 55.7 39.5 31.4 55.7 55.7 9.2 10.3 9.0 218.3 217.8 0.00 0.0009800 51.6 49.2
2021-01-21 17:20:00 55.1 40.4 31.5 55.1 55.1 8.7 9.4 8.1 224.2 223.9 0.00 0.0005131 51.5 49.2
2021-01-21 17:25:00 54.5 41.9 31.8 54.5 54.5 6.7 7.4 6.7 230.6 230.3 0.00 0.0000000 51.4 49.1
2021-01-21 17:30:00 54.0 41.6 31.2 54.0 54.0 6.0 7.8 6.9 237.1 236.0 0.00 0.0000000 51.2 49.1
2021-01-21 17:35:00 54.0 42.5 31.7 54.0 54.0 9.2 9.4 7.6 227.3 236.2 0.00 0.0000000 51.1 49.1
2021-01-21 17:40:00 54.3 41.6 31.4 54.3 54.3 8.0 9.6 8.3 243.1 233.9 0.00 0.0000000 51.0 49.0
2021-01-21 17:45:00 53.7 43.9 32.3 53.7 53.7 6.5 8.0 7.1 221.5 231.8 0.00 0.0000000 50.8 49.0
2021-01-21 17:50:00 53.2 43.0 31.3 53.2 53.2 6.5 8.1 6.6 251.5 239.3 0.00 0.0000000 50.7 48.9
2021-01-21 17:55:00 52.8 43.6 31.2 52.8 52.8 5.1 7.4 6.1 239.4 242.5 0.00 0.0000000 50.6 48.8
2021-01-21 18:00:00 53.2 43.1 31.3 53.2 53.2 6.3 7.2 6.1 254.0 246.5 0.00 0.0000000 50.4 48.8
2021-01-21 18:05:00 52.8 43.5 31.2 52.8 52.8 4.4 6.5 5.6 277.6 263.2 0.00 0.0000000 50.3 48.8
2021-01-21 18:10:00 52.8 43.7 31.3 52.8 52.8 5.5 7.1 5.6 272.6 267.0 0.00 0.0000000 50.2 48.7
2021-01-21 18:15:00 52.1 44.4 31.1 52.1 52.1 5.1 5.5 5.0 275.9 276.4 0.00 0.0000000 50.1 48.7
2021-01-21 18:20:00 51.5 45.0 30.8 51.5 51.5 4.4 5.5 4.7 280.3 276.1 0.00 0.0000000 49.9 48.6
2021-01-21 18:25:00 50.9 45.2 30.4 50.9 50.9 4.7 5.5 4.3 261.5 277.0 0.00 0.0000000 49.8 48.6
2021-01-21 18:30:00 50.8 44.1 29.7 50.8 50.8 5.3 5.5 4.8 315.0 293.4 0.00 0.0000000 49.7 48.5
2021-01-21 18:35:00 50.8 43.2 29.2 50.8 50.8 6.2 7.6 6.4 310.5 323.0 0.00 0.0000000 49.6 48.4
2021-01-21 18:40:00 51.1 41.8 28.7 51.1 51.1 6.0 6.3 5.7 297.2 307.6 0.00 0.0000000 49.5 48.4
2021-01-21 18:45:00 50.7 42.8 28.9 50.7 50.7 6.5 7.2 5.9 318.4 302.0 0.00 0.0000000 49.3 48.3
2021-01-21 18:50:00 51.2 42.8 29.3 51.2 51.2 6.2 7.6 6.8 304.3 298.0 0.00 0.0000000 49.2 48.3
2021-01-21 18:55:00 50.9 42.9 29.1 50.9 50.9 7.8 8.0 6.6 295.5 300.9 0.00 0.0000000 49.1 48.2
2021-01-21 19:00:00 50.9 42.4 28.9 50.9 50.9 6.5 8.5 7.0 299.7 300.2 0.00 0.0000000 49.0 48.1
2021-01-21 19:05:00 50.9 42.5 28.9 50.9 50.9 6.9 7.4 6.3 288.1 296.3 0.00 0.0000000 48.9 48.1
2021-01-21 19:10:00 50.3 43.9 29.2 50.3 50.3 5.6 6.5 5.7 285.1 295.7 0.00 0.0000000 48.8 48.0
2021-01-21 19:15:00 49.5 45.8 29.4 46.9 49.5 6.2 7.6 6.4 307.6 291.5 0.00 0.0000000 48.7 48.0
2021-01-21 19:20:00 48.5 46.9 29.1 46.0 48.5 5.8 7.1 6.2 297.6 297.0 0.00 0.0000000 48.6 47.9
2021-01-21 19:25:00 47.0 49.2 28.9 44.0 47.0 6.0 7.1 5.9 296.0 294.1 0.00 0.0000000 48.4 47.9
2021-01-21 19:30:00 45.9 50.6 28.6 42.3 45.9 6.7 7.2 6.4 294.7 295.9 0.00 0.0000000 48.3 47.8
2021-01-21 19:35:00 45.6 51.1 28.5 41.6 45.6 7.4 7.4 6.6 276.7 292.7 0.00 0.0000000 48.1 47.7
2021-01-21 19:40:00 45.6 50.1 28.1 42.0 45.6 6.9 8.1 6.8 303.0 294.3 0.00 0.0000000 48.0 47.7
2021-01-21 19:45:00 47.4 46.3 27.8 43.1 47.4 9.0 9.9 8.1 286.2 297.2 0.00 0.0000000 47.8 47.6
2021-01-21 19:50:00 47.9 46.4 28.3 44.3 47.9 7.8 10.1 8.5 295.0 297.0 0.00 0.0000000 47.6 47.5
2021-01-21 19:55:00 47.6 46.5 28.1 43.8 47.6 8.1 9.6 8.2 284.3 298.3 0.00 0.0000000 47.5 47.5
2021-01-21 20:00:00 47.6 46.9 28.3 43.9 47.6 7.8 9.7 8.3 306.7 299.2 0.00 0.0000000 47.3 47.4
2021-01-21 20:05:00 47.0 47.5 28.0 43.4 47.0 7.2 8.3 7.5 297.9 294.9 0.00 0.0000000 47.2 47.3
2021-01-21 20:10:00 46.3 48.6 28.0 42.3 46.3 7.8 8.0 7.4 288.3 292.4 0.00 0.0000000 47.0 47.2
2021-01-21 20:15:00 46.3 47.2 27.2 42.7 46.3 7.1 8.3 7.2 271.4 287.9 0.00 0.0000000 46.9 47.1
2021-01-21 20:20:00 46.3 46.3 26.8 43.1 46.3 6.3 8.1 7.3 274.6 276.3 0.00 0.0000000 46.7 47.1
2021-01-21 20:25:00 45.6 47.2 26.6 41.5 45.6 7.8 7.8 7.2 284.2 280.6 0.00 0.0000000 46.6 47.0
2021-01-21 20:30:00 45.5 47.8 26.9 41.6 45.5 7.2 8.3 7.3 287.3 284.0 0.00 0.0000000 46.4 46.9
2021-01-21 20:35:00 45.1 48.4 26.8 40.7 45.1 8.3 8.7 7.7 286.9 288.5 0.00 0.0000000 46.3 46.8
2021-01-21 20:40:00 45.0 49.2 27.1 40.9 45.0 7.4 8.8 7.8 292.0 290.7 0.00 0.0000000 46.2 46.7
2021-01-21 20:45:00 44.4 50.1 27.0 40.5 44.4 6.9 7.8 7.1 292.2 291.4 0.00 0.0000000 46.0 46.7
2021-01-21 20:50:00 45.4 47.0 26.4 40.7 45.4 9.0 9.7 8.2 273.2 281.3 0.00 0.0000000 45.9 46.6
2021-01-21 20:55:00 46.9 44.9 26.6 41.6 46.9 11.7 13.3 10.2 274.8 269.6 0.00 0.0000000 45.8 46.5
2021-01-21 21:00:00 46.7 46.6 27.3 42.0 46.7 9.6 12.6 9.8 272.2 259.1 0.00 0.0000000 45.7 46.4
2021-01-21 21:05:00 45.7 47.9 27.1 41.5 45.7 8.0 10.5 9.3 263.4 262.8 0.00 0.0000000 45.5 46.3
2021-01-21 21:10:00 45.3 47.9 26.7 40.3 45.3 9.7 12.2 9.2 271.0 267.1 0.00 0.0000000 45.4 46.3
2021-01-21 21:15:00 45.0 48.8 26.9 40.2 45.0 9.0 11.3 9.5 265.2 269.9 0.00 0.0000000 45.3 46.2
2021-01-21 21:20:00 44.4 49.6 26.7 38.8 44.4 10.6 11.9 9.8 277.4 267.3 0.00 0.0000000 45.2 46.1
2021-01-21 21:25:00 44.6 48.6 26.4 38.7 44.6 11.7 12.1 10.9 268.8 273.2 0.00 0.0000000 45.1 46.0
2021-01-21 21:30:00 44.3 48.9 26.3 38.4 44.3 11.7 14.9 12.0 273.7 269.9 0.00 0.0000000 45.0 45.9
2021-01-21 21:35:00 44.0 49.4 26.3 37.9 44.0 12.1 14.6 12.5 273.5 264.9 0.00 0.0000000 44.9 45.9
2021-01-21 21:40:00 43.9 49.8 26.3 37.7 43.9 11.9 15.8 12.8 265.2 267.2 0.00 0.0000000 44.8 45.8
2021-01-21 21:45:00 43.2 50.3 26.0 37.1 43.2 11.5 14.4 12.4 278.8 273.3 0.00 0.0000000 44.7 45.7
2021-01-21 21:50:00 42.6 51.6 26.0 37.1 42.6 9.4 12.4 10.7 271.4 275.7 0.00 0.0000000 44.7 45.7
2021-01-21 21:55:00 42.6 51.4 26.0 36.4 42.6 11.2 13.3 10.6 274.1 274.8 0.00 0.0000000 44.5 45.6
2021-01-21 22:00:00 42.5 51.7 25.9 36.9 42.5 9.4 13.1 10.6 269.1 275.7 0.00 0.0000000 44.5 45.6
2021-01-21 22:05:00 42.7 51.3 26.0 35.5 42.7 14.2 14.2 11.6 262.6 268.8 0.00 0.0000000 44.4 45.5
2021-01-21 22:10:00 42.8 51.4 26.1 36.6 42.8 11.3 14.0 12.2 264.7 264.9 0.00 0.0000000 44.3 45.4
2021-01-21 22:15:00 42.6 51.6 26.0 36.2 42.6 11.7 14.2 11.9 265.3 266.1 0.00 0.0000000 44.2 45.3
2021-01-21 22:20:00 42.4 52.4 26.2 36.4 42.4 10.5 13.5 11.4 268.0 269.8 0.00 0.0000000 44.1 45.3
2021-01-21 22:25:00 41.9 53.1 26.1 35.7 41.9 10.8 12.1 10.4 275.2 272.4 0.00 0.0000000 44.0 45.2
2021-01-21 22:30:00 41.4 53.7 25.8 34.2 41.4 13.1 13.1 10.2 265.4 273.3 0.00 0.0000000 43.9 45.2
2021-01-21 22:35:00 41.2 53.9 25.8 34.5 41.2 11.5 11.7 10.5 277.6 272.3 0.00 0.0000000 43.8 45.1
2021-01-21 22:40:00 41.3 54.1 25.9 35.3 41.3 9.9 12.4 11.0 282.7 274.8 0.00 0.0000000 43.7 45.0
2021-01-21 22:45:00 40.8 54.9 25.8 34.8 40.8 9.6 11.3 10.0 267.4 271.9 0.00 0.0000000 43.6 45.0
2021-01-21 22:50:00 40.6 55.2 25.7 34.7 40.6 9.2 11.7 10.0 272.0 272.2 0.00 0.0000000 43.6 44.9
2021-01-21 22:55:00 40.4 55.6 25.8 34.8 40.4 8.5 10.8 8.9 288.4 275.4 0.00 0.0000000 43.5 44.8
2021-01-21 23:00:00 40.3 55.6 25.7 35.0 40.3 8.0 9.9 8.8 277.6 277.4 0.00 0.0000000 43.4 44.8
2021-01-21 23:05:00 40.0 56.2 25.6 34.1 40.0 8.8 10.1 8.5 283.2 281.2 0.00 0.0000000 43.3 44.7
2021-01-21 23:10:00 39.8 56.6 25.6 33.5 39.8 9.7 11.5 9.6 275.2 272.5 0.00 0.0000000 43.2 44.7
2021-01-21 23:15:00 39.5 57.0 25.5 33.1 39.5 9.7 11.2 10.1 287.2 279.0 0.00 0.0000000 43.1 44.6
2021-01-21 23:20:00 38.7 58.3 25.3 32.7 38.7 8.7 9.7 8.8 279.7 279.3 0.00 0.0000000 43.0 44.5
2021-01-21 23:25:00 38.3 59.1 25.3 33.4 38.3 6.5 9.6 8.3 294.6 282.7 0.00 0.0000000 42.9 44.5
2021-01-21 23:30:00 37.5 61.2 25.3 32.1 37.5 6.9 7.4 6.4 332.1 333.3 0.00 0.0000000 42.8 44.4
2021-01-21 23:35:00 37.1 62.0 25.3 31.7 37.1 6.9 7.8 7.0 298.2 310.1 0.00 0.0000000 42.7 44.3
2021-01-21 23:40:00 36.8 63.1 25.4 31.0 36.8 7.4 8.7 7.5 274.7 280.7 0.00 0.0000000 42.6 44.3
2021-01-21 23:45:00 36.2 63.2 24.9 32.3 36.2 4.6 8.7 6.5 331.3 284.4 0.00 0.0000000 42.5 44.2
2021-01-21 23:50:00 36.5 62.6 24.9 31.2 36.5 6.5 8.5 5.9 321.1 341.7 0.00 0.0000000 42.4 44.1
2021-01-21 23:55:00 36.3 62.3 24.6 31.3 36.3 6.0 6.9 6.0 284.7 306.0 0.00 0.0000000 42.3 44.1
2021-01-22 00:00:00 35.4 64.7 24.7 29.4 35.4 7.2 7.6 6.6 261.9 265.2 0.00 0.0000000 42.1 44.0
2021-01-22 00:05:00 35.1 65.0 24.5 29.8 35.1 6.2 7.2 6.0 265.8 268.5 0.00 0.0000000 42.0 43.9
2021-01-22 00:10:00 36.1 62.2 24.4 29.4 36.1 8.7 10.3 8.3 265.8 270.3 0.00 0.0000000 41.9 43.8
2021-01-22 00:15:00 37.0 61.2 24.9 29.7 37.0 10.6 12.1 10.9 259.2 264.7 0.00 0.0000000 41.8 43.8
2021-01-22 00:20:00 37.0 60.7 24.7 29.8 37.0 10.3 12.4 10.8 279.0 273.5 0.00 0.0000000 41.7 43.7
2021-01-22 00:25:00 36.7 61.5 24.7 30.8 36.7 7.4 11.2 9.3 282.5 275.8 0.00 0.0000000 41.6 43.6
2021-01-22 00:30:00 35.8 62.9 24.4 29.6 35.8 7.8 9.9 8.0 284.5 278.5 0.00 0.0000000 41.5 43.6
2021-01-22 00:35:00 35.0 64.7 24.3 28.1 35.0 8.7 8.7 7.5 278.4 277.9 0.00 0.0000000 41.4 43.5
2021-01-22 00:40:00 34.7 65.4 24.2 28.2 34.7 7.8 9.0 8.1 287.7 275.7 0.00 0.0000000 41.3 43.4
2021-01-22 00:45:00 34.3 66.0 24.2 30.9 34.3 3.8 7.6 5.6 288.4 290.2 0.00 0.0000000 41.2 43.4
2021-01-22 00:50:00 34.3 66.1 24.2 31.6 34.3 3.3 4.2 3.5 290.7 291.5 0.00 0.0000000 41.1 43.3
2021-01-22 00:55:00 33.7 67.4 24.1 27.5 33.7 7.1 7.6 5.6 274.9 303.9 0.00 0.0000000 41.0 43.2
2021-01-22 01:00:00 34.3 65.3 23.9 28.9 34.3 6.0 8.5 7.2 282.1 292.9 0.00 0.0000000 40.9 43.1
2021-01-22 01:05:00 33.7 65.7 23.5 30.4 33.7 3.7 6.2 5.1 322.0 293.2 0.00 0.0000000 40.8 43.1
2021-01-22 01:10:00 32.3 67.9 22.8 28.1 32.3 4.2 4.6 4.1 299.7 315.4 0.00 0.0000000 40.7 43.0
2021-01-22 01:15:00 31.4 68.6 22.3 27.6 31.4 3.8 4.6 4.3 298.1 302.5 0.00 0.0000000 40.6 42.9
2021-01-22 01:20:00 30.9 72.5 23.1 24.6 30.9 6.3 6.3 5.2 281.0 287.0 0.00 0.0000000 40.5 42.8
2021-01-22 01:25:00 30.8 72.6 23.0 24.4 30.8 6.5 7.2 6.6 285.1 283.4 0.00 0.0000000 40.3 42.8
2021-01-22 01:30:00 31.2 71.9 23.2 24.5 31.2 6.9 7.2 6.9 295.5 289.0 0.00 0.0000000 40.2 42.7
2021-01-22 01:35:00 30.7 72.1 22.8 24.4 30.7 6.3 7.1 6.5 300.1 296.7 0.00 0.0000000 40.1 42.6
2021-01-22 01:40:00 30.7 72.6 22.9 23.1 30.7 8.1 8.8 7.2 310.4 299.3 0.00 0.0000000 40.0 42.5
2021-01-22 01:45:00 31.1 71.5 23.0 24.0 31.1 7.6 8.7 7.8 318.3 313.5 0.00 0.0000000 39.9 42.5
2021-01-22 01:50:00 31.4 70.1 22.8 25.0 31.4 6.7 9.0 7.1 307.2 312.5 0.00 0.0000000 39.8 42.4
2021-01-22 01:55:00 30.9 70.8 22.5 24.4 30.9 6.7 7.1 6.5 333.7 318.8 0.00 0.0000000 39.7 42.3
2021-01-22 02:00:00 31.4 70.2 22.8 23.9 31.4 8.1 8.3 7.3 346.2 342.8 0.00 0.0000000 39.6 42.2
2021-01-22 02:05:00 31.2 70.6 22.7 23.6 31.2 8.3 9.0 7.5 341.6 337.7 0.00 0.0000000 39.5 42.2
2021-01-22 02:10:00 30.4 72.6 22.6 22.4 30.4 8.7 9.6 7.8 334.4 339.6 0.00 0.0000000 39.4 42.1
2021-01-22 02:15:00 30.2 73.3 22.7 25.0 30.2 4.9 8.1 6.5 317.6 330.4 0.00 0.0000000 39.3 42.0
2021-01-22 02:20:00 29.3 74.3 22.2 29.3 29.3 2.6 5.8 3.1 256.0 288.6 0.00 0.0000000 39.2 41.9
2021-01-22 02:25:00 29.0 76.0 22.4 25.3 29.0 3.5 3.8 2.8 252.8 254.3 0.00 0.0000000 39.1 41.9
2021-01-22 02:30:00 29.4 75.4 22.6 25.4 29.4 3.7 5.6 4.7 311.4 292.3 0.00 0.0000000 39.0 41.8
2021-01-22 02:35:00 29.0 75.9 22.4 23.0 29.0 5.6 6.3 5.1 319.8 325.4 0.00 0.0000000 38.9 41.7
2021-01-22 02:40:00 28.3 78.0 22.3 21.7 28.3 6.2 7.2 6.3 344.5 335.7 0.00 0.0000000 38.8 41.6
2021-01-22 02:45:00 28.3 78.4 22.4 22.4 28.3 5.3 7.1 5.9 345.7 343.8 0.00 0.0000000 38.7 41.6
2021-01-22 02:50:00 27.6 79.1 21.9 22.3 27.6 4.6 6.0 4.8 332.6 341.9 0.00 0.0000000 38.6 41.5
2021-01-22 02:55:00 27.3 80.3 22.0 23.5 27.3 3.3 5.1 3.8 332.3 338.6 0.00 0.0000000 38.5 41.4
2021-01-22 03:00:00 26.9 81.5 22.0 22.0 26.9 4.2 4.2 3.6 337.3 333.1 0.00 0.0000000 38.4 41.4
2021-01-22 03:05:00 26.9 84.3 22.8 20.6 26.9 5.5 5.8 4.9 350.9 342.3 0.00 0.0000000 38.3 41.3
2021-01-22 03:10:00 27.6 83.4 23.3 21.5 27.6 5.5 6.0 5.1 332.9 349.4 0.00 0.0000000 38.2 41.2
2021-01-22 03:15:00 28.0 82.2 23.3 23.0 28.0 4.4 6.9 5.7 330.3 345.3 0.00 0.0000000 38.1 41.1
2021-01-22 03:20:00 27.7 83.8 23.4 23.0 27.7 4.0 6.0 4.8 336.3 345.7 0.00 0.0000000 38.0 41.0
2021-01-22 03:25:00 28.3 84.8 24.3 22.6 28.3 5.1 6.2 4.9 4.6 346.9 0.00 0.0000000 37.9 41.0
2021-01-22 03:30:00 28.6 83.4 24.2 22.3 28.6 5.8 6.7 5.4 335.4 343.9 0.00 0.0000000 37.8 40.9
2021-01-22 03:35:00 28.7 83.8 24.4 22.1 28.7 6.2 7.1 5.7 342.4 351.2 0.00 0.0000000 37.7 40.8
2021-01-22 03:40:00 28.4 84.1 24.2 22.6 28.4 5.3 6.5 5.6 343.2 351.7 0.00 0.0000000 37.6 40.7
2021-01-22 03:45:00 28.1 84.1 23.9 22.9 28.1 4.6 6.0 5.2 5.2 350.2 0.00 0.0000000 37.6 40.7
2021-01-22 03:50:00 28.2 85.1 24.3 22.8 28.2 4.7 5.8 4.9 345.8 344.8 0.00 0.0000000 37.5 40.6
2021-01-22 03:55:00 28.2 85.8 24.5 22.4 28.2 5.3 6.0 5.4 0.1 349.8 0.00 0.0000000 37.4 40.5
2021-01-22 04:00:00 28.3 84.4 24.2 22.1 28.3 5.6 6.3 5.4 344.1 346.2 0.00 0.0000000 37.3 40.5
2021-01-22 04:05:00 28.1 86.1 24.5 22.9 28.1 4.6 6.0 5.0 351.3 344.3 0.00 0.0000000 37.2 40.4
2021-01-22 04:10:00 28.5 87.9 25.4 22.7 28.5 5.3 5.8 5.0 3.2 352.3 0.00 0.0000000 37.2 40.3
2021-01-22 04:15:00 28.9 86.0 25.2 24.2 28.9 4.2 5.5 4.5 0.4 347.3 0.00 0.0000000 37.1 40.3
2021-01-22 04:20:00 28.4 85.2 24.5 22.0 28.4 5.8 6.2 5.0 345.9 344.1 0.00 0.0000000 37.0 40.2
2021-01-22 04:25:00 27.8 87.3 24.5 22.7 27.8 4.4 6.0 4.9 0.1 350.4 0.00 0.0000000 37.0 40.1
2021-01-22 04:30:00 27.5 87.0 24.2 22.2 27.5 4.6 5.3 4.6 349.1 348.1 0.00 0.0000000 36.9 40.1
2021-01-22 04:35:00 27.5 87.3 24.2 20.7 27.5 6.2 7.1 5.5 353.2 345.3 0.00 0.0000000 36.8 40.0
2021-01-22 04:40:00 26.8 88.8 23.9 19.0 26.8 7.2 8.1 6.8 338.1 345.8 0.00 0.0000000 36.7 39.9
2021-01-22 04:45:00 26.7 87.9 23.6 19.9 26.7 6.0 7.6 5.8 14.4 352.7 0.00 0.0000000 36.7 39.9
2021-01-22 04:50:00 26.4 89.5 23.7 20.7 26.4 4.7 6.7 5.2 340.4 354.6 0.00 0.0000000 36.6 39.8
2021-01-22 04:55:00 27.5 91.0 25.2 24.0 27.5 3.1 6.7 4.9 10.0 355.9 0.00 0.0000000 36.5 39.8
2021-01-22 05:00:00 29.7 91.8 27.6 25.0 29.7 4.4 6.3 4.4 8.8 11.2 0.00 0.0000000 36.5 39.7
2021-01-22 05:05:00 30.7 87.3 27.4 27.2 30.7 3.5 6.3 4.3 351.0 10.3 0.00 0.0000000 36.4 39.6
2021-01-22 05:10:00 30.6 85.6 26.8 26.4 30.6 4.0 6.5 4.1 339.6 1.0 0.00 0.0000000 36.3 39.6
2021-01-22 05:15:00 29.5 86.6 26.0 24.8 29.5 4.4 5.8 4.6 5.0 351.9 0.00 0.0000000 36.3 39.5
2021-01-22 05:20:00 28.6 83.3 24.1 23.1 28.6 4.9 5.5 4.6 339.5 346.5 0.00 0.0000000 36.2 39.4
2021-01-22 05:25:00 26.7 88.5 23.7 20.5 26.7 5.3 5.8 5.3 346.8 344.5 0.00 0.0000000 36.2 39.4
2021-01-22 05:30:00 26.8 91.1 24.5 22.9 26.8 3.3 5.6 4.5 347.3 351.7 0.00 0.0000000 36.1 39.3
2021-01-22 05:35:00 27.6 91.1 25.3 22.7 27.6 4.2 6.0 4.4 8.8 355.1 0.00 0.0000000 36.1 39.3
2021-01-22 05:40:00 28.4 91.9 26.3 23.6 28.4 4.2 4.7 3.6 352.3 0.7 0.00 0.0000000 36.0 39.2
2021-01-22 05:45:00 29.0 88.9 26.2 25.0 29.0 3.7 4.6 3.4 90.0 350.9 0.00 0.0000000 35.9 39.2
2021-01-22 05:50:00 26.3 84.6 22.3 19.1 26.3 6.3 6.3 5.0 338.4 342.0 0.00 0.0000000 35.9 39.1
2021-01-22 05:55:00 25.2 90.1 22.7 18.4 25.2 5.6 6.9 6.3 339.5 342.7 0.00 0.0000000 35.8 39.1
2021-01-22 06:00:00 24.8 93.0 23.0 17.3 24.8 6.3 6.5 5.2 339.7 342.7 0.00 0.0000000 35.8 39.0
2021-01-22 06:05:00 25.2 90.6 22.8 18.1 25.2 6.0 6.3 5.9 342.2 343.0 0.00 0.0000000 35.7 39.0
2021-01-22 06:10:00 24.6 91.2 22.4 17.9 24.6 5.5 6.2 5.6 345.2 343.2 0.00 0.0000000 35.6 38.9
2021-01-22 06:15:00 24.8 93.2 23.1 17.7 24.8 6.0 6.3 5.5 350.7 347.4 0.00 0.0000000 35.5 38.9
2021-01-22 06:20:00 25.2 92.4 23.3 17.9 25.2 6.2 6.5 5.8 342.1 342.2 0.00 0.0000000 35.5 38.8
2021-01-22 06:25:00 25.1 91.9 23.1 18.3 25.1 5.6 6.0 5.5 334.8 332.2 0.00 0.0000000 35.4 38.7
2021-01-22 06:30:00 25.0 91.8 22.9 18.1 25.0 5.6 6.5 5.9 348.9 335.8 0.00 0.0000000 35.3 38.7
2021-01-22 06:35:00 24.8 91.8 22.7 17.4 24.8 6.2 6.3 5.9 339.6 339.9 0.00 0.0000000 35.2 38.6
2021-01-22 06:40:00 24.7 92.6 22.9 17.7 24.7 5.8 6.2 5.4 329.7 335.2 0.00 0.0000000 35.2 38.6
2021-01-22 06:45:00 24.9 92.3 23.0 18.8 24.9 4.9 6.0 5.3 335.9 334.2 0.00 0.0000000 35.1 38.5
2021-01-22 06:50:00 24.6 92.0 22.6 18.8 24.6 4.6 5.1 4.5 323.6 328.9 0.00 0.0000000 35.0 38.4

Data is courtesy of the NM Climate Center. DO NOT USE IN LEGAL PROCEEDINGS.